METAR Data
IDs: Format: Raw Decoded Include TAF

Data at: 1923 UTC 14 Dec 2018

KBPT 141904Z 26010G20KT 10SM OVC015 11/08 A2986 RMK AO2 T01110078
KBPT 141853Z 27010KT 10SM OVC010 11/08 A2986 RMK AO2 RAE1756 SLP110 P0000 T01110078
KBPT 141821Z 25013KT 10SM OVC010 11/08 A2986 RMK AO2 RAE1756 P0000 T01060078
KBPT 141753Z 24010KT 10SM -RA BKN009 OVC016 10/08 A2988 RMK AO2 RAE02B32 SLP116 P0000 60002 T01000078 10100 20083 58005
KBPT 141653Z COR 25011G17KT 10SM OVC007 09/07 A2990 RMK AO2 RAE14B30 SLP126 P0001 T00940072
KBPT 141635Z 25009KT 6SM -RA BR OVC007 09/07 A2991 RMK AO2 RAE14B30 P0001 T00890072
KBPT 141553Z 25009KT 7SM -RA BKN013 OVC019 09/07 A2991 RMK AO2 RAB26 SLP127 P0001 T00890067
KBPT 141453Z 26010G16KT 10SM OVC020 09/05 A2989 RMK AO2 SLP121 T00940050 51028
KBPT 141353Z 25011KT 10SM OVC019 09/04 A2987 RMK AO2 SLP115 T00890044
KBPT 141253Z 26009G18KT 10SM BKN025 BKN034 OVC044 09/04 A2984 RMK AO2 SLP104 T00890044
KBPT 141153Z AUTO 25010KT 10SM OVC031 09/04 A2980 RMK AO2 SLP092 70052 T00940039 10117 20078 58003
KBPT 141053Z AUTO 25012KT 10SM OVC034 09/04 A2982 RMK AO2 SLP098 T00940039
KBPT 140953Z AUTO 23006KT 10SM OVC039 09/04 A2982 RMK AO2 SLP096 T00890039
KBPT 140853Z AUTO 26007KT 10SM CLR 08/03 A2981 RMK AO2 SLP095 T00830033 51006
KBPT 140753Z AUTO 26007KT 10SM CLR 09/04 A2981 RMK AO2 SLP095 T00890039
KBPT 140653Z AUTO 27011KT 10SM CLR 10/04 A2980 RMK AO2 SLP090 T01000039
KBPT 140553Z AUTO 27014G20KT 10SM CLR 12/05 A2980 RMK AO2 SLP089 60000 T01170050 10189 20117 402390117 53015
KBPT 140453Z AUTO 24012G17KT 10SM CLR 14/07 A2976 RMK AO2 SLP076 T01440072
KBPT 140353Z 22005KT 10SM CLR 15/13 A2975 RMK AO2 SLP073 T01500133
KBPT 140253Z 22007KT 10SM BKN120 18/16 A2975 RMK AO2 RAB30E39 SLP074 P0000 60000 T01780156 51012
KBPT 140153Z 21006KT 10SM OVC110 18/16 A2974 RMK AO2 SLP070 T01780161
KBPT 140053Z 18006KT 10SM CLR 18/16 A2973 RMK AO2 SLP067 T01780156
KBPT 132353Z 19007KT 10SM CLR 19/16 A2972 RMK AO2 SLP062 60000 T01890156 10239 20189 53005
KBPT 132253Z 21010KT 10SM SCT030 21/16 A2971 RMK AO2 SLP061 T02110156
KBPT 132153Z 19013G19KT 10SM FEW041 23/15 A2970 RMK AO2 SLP055 T02280150
KBPT 132053Z 21011G22KT 10SM FEW047 23/16 A2970 RMK AO2 SLP057 60000 T02330156 56019
KBPT 131953Z 19013G20KT 10SM FEW050 23/15 A2971 RMK AO2 SLP058 T02330150
KBPT 131853Z 21013KT 10SM CLR 23/17 A2973 RMK AO2 RAB37E47 SLP066 P0000 T02280172
KBPT 131753Z 19018G26KT 10SM FEW055 BKN090 OVC110 23/17 A2976 RMK AO2 PK WND 18026/1753 SLP076 60052 T02280172 10228 20167 58016
KBPT 131731Z 20017G24KT 10SM SCT013 BKN060 21/17 A2978 RMK AO2 T02110172
KBPT 131653Z 19009KT 9SM OVC013 20/18 A2979 RMK AO2 RAB06E13B24E33 SLP089 P0000 T02000178
KBPT 131644Z 19011KT 9SM BKN013 BKN021 OVC026 20/18 A2980 RMK AO2 RAB06E13B24E33 P0000 T02000178
KBPT 131621Z 17005KT 9SM BKN021 BKN029 OVC075 19/18 A2981 RMK AO2 RAB06E13 P0000 T01940178
KBPT 131604Z 16007KT 9SM FEW014 BKN038 OVC100 19/17 A2981 RMK AO2 T01890172
KBPT 131553Z 14006KT 9SM SCT014 BKN020 OVC038 18/17 A2982 RMK AO2 SLP096 T01830167
KBPT 131453Z 11005KT 10SM BKN023 BKN029 OVC036 17/16 A2980 RMK AO2 RAE47 SLP092 P0002 60052 T01720156 50002 $
KBPT 131446Z 10007KT 10SM -RA BKN023 BKN036 OVC050 17/16 A2981 RMK AO2 P0002 T01720156 $
KBPT 131353Z 18006KT 10SM -RA FEW022 OVC100 17/14 A2982 RMK AO2 PK WND 15027/1317 PRESRR SLP096 P0016 T01720144 $
KBPT 131253Z 17013G18KT 5SM +RA BR SCT065 OVC085 18/16 A2982 RMK AO2 SLP099 P0034 T01780161 $
KBPT 131232Z 17008KT 4SM +RA BR FEW012 BKN055 OVC090 18/17 A2983 RMK AO2 P0022 T01830167 $
KBPT 131215Z 18008KT 5SM +RA BR SCT009 BKN014 OVC095 18/17 A2982 RMK AO2 P0012 T01830167 $
KBPT 131206Z 18008KT 2 1/2SM +RA BR FEW009 BKN012 OVC039 18/17 A2981 RMK AO2 P0009 T01830167 $
KBPT 131156Z AUTO 17004KT 5SM +RA BR BKN014 BKN022 OVC048 18/17 A2981 RMK AO2 P0002 T01830167 $
KBPT 131153Z AUTO 14005KT 5SM +RA BR SCT014 BKN040 OVC050 18/17 A2980 RMK AO2 RAB1057 SLP090 P0013 60014 70014 T01830167 10189 20167 55008 $
KBPT 131053Z AUTO 12009KT 10SM OVC060 18/16 A2978 RMK AO2 LTG DSNT N AND NW RAB38E52 SLP082 P0001 T01830156 $
KBPT 130953Z AUTO 11009KT 10SM OVC060 18/16 A2979 RMK AO2 LTG DSNT NW SLP088 T01830156 $
KBPT 130853Z AUTO 11008KT 10SM OVC075 18/15 A2982 RMK AO2 SLP099 T01780150 58035 $
KBPT 130753Z AUTO 11007KT 10SM BKN055 17/14 A2988 RMK AO2 SLP116 T01670144 $